createdAt,value
2022-08-11T00:01:21.121Z,102621.81
2022-08-11T00:03:53.768Z,102622.47
2022-08-11T00:06:28.171Z,102625.19
2022-08-11T00:08:55.980Z,102628.28
2022-08-11T00:11:32.573Z,102623.16
2022-08-11T00:14:00.274Z,102621.31
2022-08-11T00:16:27.792Z,102621.50
2022-08-11T00:18:58.963Z,102632.00
2022-08-11T00:22:01.989Z,102631.31
2022-08-11T00:24:13.420Z,102626.06
2022-08-11T00:26:39.855Z,102631.50
2022-08-11T00:29:10.935Z,102631.66
2022-08-11T00:31:38.599Z,102636.56
2022-08-11T00:34:11.676Z,102630.81
2022-08-11T00:37:03.241Z,102639.13
2022-08-11T00:39:34.146Z,102637.94
2022-08-11T00:42:40.475Z,102628.63
2022-08-11T00:45:13.674Z,102632.50
2022-08-11T00:48:01.273Z,102628.91
2022-08-11T00:50:55.185Z,102632.00
2022-08-11T00:54:03.411Z,102632.66
2022-08-11T00:56:41.798Z,102626.53
2022-08-11T00:59:35.465Z,102631.28
2022-08-11T01:02:24.140Z,102644.88
2022-08-11T01:05:28.031Z,102651.47
2022-08-11T01:08:15.974Z,102639.25
2022-08-11T01:10:59.329Z,102642.66
2022-08-11T01:13:50.892Z,102649.41
2022-08-11T01:16:29.402Z,102636.38
2022-08-11T01:18:55.767Z,102638.75
2022-08-11T01:21:40.906Z,102642.44
2022-08-11T01:24:50.208Z,102638.38
2022-08-11T01:27:55.523Z,102642.78
2022-08-11T01:30:43.775Z,102648.19
2022-08-11T01:33:38.543Z,102632.94
2022-08-11T01:36:28.740Z,102646.16
2022-08-11T01:39:14.035Z,102644.63
2022-08-11T01:42:18.811Z,102642.44
2022-08-11T01:45:03.385Z,102630.56
2022-08-11T01:48:04.571Z,102632.91
2022-08-11T01:50:30.980Z,102632.59
2022-08-11T01:53:31.547Z,102638.69
2022-08-11T01:56:30.379Z,102644.44
2022-08-11T01:59:24.388Z,102632.28
2022-08-11T02:02:48.576Z,102630.41
2022-08-11T02:05:23.273Z,102631.75
2022-08-11T02:08:11.813Z,102627.66
2022-08-11T02:11:05.515Z,102636.97
2022-08-11T02:13:52.112Z,102642.25
2022-08-11T02:16:24.507Z,102638.34
2022-08-11T02:19:19.555Z,102638.50
2022-08-11T02:22:13.914Z,102638.66
2022-08-11T02:25:07.858Z,102639.97
2022-08-11T02:27:44.179Z,102630.84
2022-08-11T02:30:15.176Z,102634.91
2022-08-11T02:33:27.396Z,102631.00
2022-08-11T02:36:06.332Z,102633.19
2022-08-11T02:39:03.390Z,102643.53
2022-08-11T02:42:00.368Z,102631.50
2022-08-11T02:44:39.880Z,102636.06
2022-08-11T02:47:18.123Z,102628.44
2022-08-11T02:49:59.712Z,102638.22
2022-08-11T02:52:47.291Z,102629.75
2022-08-11T02:55:56.523Z,102626.69
2022-08-11T02:58:36.577Z,102615.34
2022-08-11T03:01:28.333Z,102612.28
2022-08-11T03:04:00.547Z,102617.84
2022-08-11T03:06:39.387Z,102608.41
2022-08-11T03:09:22.409Z,102609.72
2022-08-11T03:12:34.384Z,102612.31
2022-08-11T03:15:41.196Z,102611.63
2022-08-11T03:18:48.797Z,102616.84
2022-08-11T03:21:22.048Z,102619.91
2022-08-11T03:24:06.739Z,102618.72
2022-08-11T03:26:47.293Z,102619.34
2022-08-11T03:29:31.165Z,102616.84
2022-08-11T03:32:04.575Z,102626.13
2022-08-11T03:34:36.707Z,102622.19
2022-08-11T03:37:51.818Z,102609.31
2022-08-11T03:40:38.119Z,102611.66
2022-08-11T03:43:18.010Z,102615.22
2022-08-11T03:45:57.255Z,102617.41
2022-08-11T03:48:43.040Z,102621.28
2022-08-11T03:51:25.502Z,102619.53
2022-08-11T03:54:06.001Z,102619.63
2022-08-11T03:57:00.445Z,102625.84
2022-08-11T04:00:03.845Z,102623.31
2022-08-11T04:03:21.040Z,102622.56
2022-08-11T04:06:09.414Z,102628.81
2022-08-11T04:08:57.708Z,102637.16
2022-08-11T04:11:45.895Z,102631.91
2022-08-11T04:14:45.574Z,102628.19
2022-08-11T04:17:48.516Z,102633.38
2022-08-11T04:20:49.461Z,102635.25
2022-08-11T04:24:13.058Z,102635.94
2022-08-11T04:27:01.929Z,102631.53
2022-08-11T04:30:05.809Z,102631.69
2022-08-11T04:32:44.192Z,102628.16
2022-08-11T04:35:19.972Z,102625.81
2022-08-11T04:38:19.172Z,102620.75
2022-08-11T04:41:19.796Z,102623.09
2022-08-11T04:44:07.964Z,102621.06
2022-08-11T04:47:06.447Z,102621.72
2022-08-11T04:50:19.757Z,102636.66
2022-08-11T04:53:38.198Z,102632.59
2022-08-11T04:56:39.477Z,102619.81
2022-08-11T04:59:45.616Z,102617.44
2022-08-11T05:02:32.903Z,102627.09
2022-08-11T05:05:32.882Z,102633.09
2022-08-11T05:08:24.413Z,102626.69
2022-08-11T05:11:12.711Z,102623.66
2022-08-11T05:14:06.334Z,102610.97
2022-08-11T05:17:00.772Z,102618.97
2022-08-11T05:19:46.133Z,102616.97
2022-08-11T05:22:33.278Z,102621.19
2022-08-11T05:26:43.728Z,102614.09
2022-08-11T05:28:55.566Z,102611.56
2022-08-11T05:32:04.679Z,102617.34
2022-08-11T05:34:56.844Z,102620.41
2022-08-11T05:37:33.399Z,102620.44
2022-08-11T05:40:30.253Z,102617.72
2022-08-11T05:43:36.084Z,102618.94
2022-08-11T05:46:25.568Z,102610.97
2022-08-11T05:49:11.448Z,102604.50
2022-08-11T05:52:04.871Z,102598.69
2022-08-11T05:54:50.945Z,102598.84
2022-08-11T05:57:43.865Z,102588.03
2022-08-11T06:00:14.551Z,102595.81
2022-08-11T06:02:49.117Z,102592.69
2022-08-11T06:05:16.431Z,102585.50
2022-08-11T06:07:48.797Z,102583.69
2022-08-11T06:10:33.225Z,102584.34
2022-08-11T06:13:01.156Z,102584.69
2022-08-11T06:15:30.017Z,102580.38
2022-08-11T06:17:58.861Z,102582.63
2022-08-11T06:20:26.049Z,102577.84
2022-08-11T06:22:58.774Z,102577.22
2022-08-11T06:25:35.833Z,102577.44
2022-08-11T06:28:07.517Z,102571.38
2022-08-11T06:30:45.701Z,102576.63
2022-08-11T06:33:19.475Z,102574.16
2022-08-11T06:36:02.667Z,102559.22
2022-08-11T06:38:53.328Z,102549.41
2022-08-11T06:41:32.317Z,102548.50
2022-08-11T06:44:16.604Z,102548.50
2022-08-11T06:46:55.892Z,102545.53
2022-08-11T06:49:51.049Z,102545.97
2022-08-11T06:52:35.089Z,102544.72
2022-08-11T06:55:57.479Z,102548.31
2022-08-11T06:58:16.599Z,102545.25
2022-08-11T07:00:45.567Z,102551.41
2022-08-11T07:03:16.657Z,102541.00
2022-08-11T07:05:54.110Z,102542.44
2022-08-11T07:09:04.301Z,102536.03
2022-08-11T07:12:14.232Z,102531.16
2022-08-11T07:15:08.511Z,102532.72
2022-08-11T07:17:42.611Z,102538.97
2022-08-11T07:20:29.305Z,102542.66
2022-08-11T07:23:17.812Z,102539.66
2022-08-11T07:26:08.846Z,102534.91
2022-08-11T07:28:58.557Z,102533.28
2022-08-11T07:31:46.231Z,102547.53
2022-08-11T07:34:21.475Z,102541.44
2022-08-11T07:36:53.498Z,102541.66
2022-08-11T07:39:25.921Z,102538.66
2022-08-11T07:41:54.529Z,102539.66
2022-08-11T07:44:22.365Z,102537.59
2022-08-11T07:47:08.848Z,102529.59
2022-08-11T07:49:56.083Z,102538.44
2022-08-11T07:52:33.629Z,102542.78
2022-08-11T07:55:03.251Z,102535.53
2022-08-11T07:58:14.277Z,102535.59
2022-08-11T08:01:02.647Z,102532.66
2022-08-11T08:03:53.874Z,102535.16
2022-08-11T08:06:41.380Z,102531.75
2022-08-11T08:09:27.667Z,102532.41
2022-08-11T08:12:14.036Z,102528.19
2022-08-11T08:14:59.292Z,102525.31
2022-08-11T08:17:46.538Z,102525.22
2022-08-11T08:20:38.180Z,102525.97
2022-08-11T08:23:06.178Z,102530.47
2022-08-11T08:25:35.119Z,102517.09
2022-08-11T08:28:07.356Z,102519.88
2022-08-11T08:30:50.989Z,102522.28
2022-08-11T08:33:30.376Z,102523.81
2022-08-11T08:36:16.263Z,102526.13
2022-08-11T08:38:48.311Z,102520.59
2022-08-11T08:41:21.451Z,102528.41
2022-08-11T08:43:51.888Z,102523.00
2022-08-11T08:46:22.361Z,102517.56
2022-08-11T08:48:50.426Z,102529.91
2022-08-11T08:52:01.346Z,102520.34
2022-08-11T08:54:33.956Z,102524.88
2022-08-11T08:57:04.979Z,102529.53
2022-08-11T08:59:47.388Z,102511.53
2022-08-11T09:02:17.842Z,102515.84
2022-08-11T09:04:46.650Z,102521.19
2022-08-11T09:07:16.473Z,102516.22
2022-08-11T09:09:49.019Z,102515.94
2022-08-11T09:12:17.402Z,102513.38
2022-08-11T09:15:05.711Z,102510.66
2022-08-11T09:18:01.324Z,102514.53
2022-08-11T09:20:29.352Z,102517.00
2022-08-11T09:26:31.390Z,102515.88
2022-08-11T09:28:59.278Z,102515.38
2022-08-11T09:31:26.756Z,102517.50
2022-08-11T09:33:55.469Z,102513.13
2022-08-11T09:36:41.533Z,102509.25
2022-08-11T09:39:30.809Z,102513.22
2022-08-11T09:42:03.439Z,102512.06
2022-08-11T09:44:48.814Z,102498.25
2022-08-11T09:47:31.771Z,102503.56
2022-08-11T09:50:01.035Z,102508.78
2022-08-11T09:52:30.712Z,102508.50
2022-08-11T09:54:57.447Z,102504.38
2022-08-11T09:57:44.477Z,102495.13
2022-08-11T10:00:14.202Z,102507.75
2022-08-11T10:02:47.218Z,102502.72
2022-08-11T10:05:36.009Z,102499.94
2022-08-11T10:08:04.373Z,102502.22
2022-08-11T10:10:35.802Z,102502.72
2022-08-11T10:14:30.792Z,102496.91
2022-08-11T10:16:00.101Z,102498.84
2022-08-11T10:18:49.251Z,102468.25
2022-08-11T10:21:28.133Z,102484.41
2022-08-11T10:24:15.315Z,102491.06
2022-08-11T10:26:53.597Z,102485.22
2022-08-11T10:29:49.623Z,102474.34
2022-08-11T10:32:57.634Z,102479.13
2022-08-11T10:35:30.524Z,102469.41
2022-08-11T10:38:15.835Z,102470.16
2022-08-11T10:40:46.900Z,102466.03
2022-08-11T10:44:03.372Z,102458.50
2022-08-11T10:46:29.733Z,102456.84
2022-08-11T10:48:57.931Z,102462.53
2022-08-11T10:51:50.571Z,102458.59
2022-08-11T10:54:39.287Z,102458.22
2022-08-11T10:57:24.743Z,102452.00
2022-08-11T10:59:52.220Z,102448.88
2022-08-11T11:02:19.867Z,102453.50
2022-08-11T11:05:01.548Z,102455.19
2022-08-11T11:07:56.879Z,102444.38
2022-08-11T11:10:23.481Z,102446.59
2022-08-11T11:13:15.917Z,102440.41
2022-08-11T11:16:05.379Z,102438.03
2022-08-11T11:18:36.578Z,102441.19
2022-08-11T11:21:07.355Z,102437.56
2022-08-11T11:23:56.104Z,102431.13
2022-08-11T11:26:57.990Z,102429.75
2022-08-11T11:29:53.299Z,102430.09
2022-08-11T11:32:35.130Z,102434.84
2022-08-11T11:35:16.873Z,102435.75
2022-08-11T11:38:03.730Z,102434.91
2022-08-11T11:40:32.548Z,102426.59
2022-08-11T11:43:00.206Z,102430.94
2022-08-11T11:45:26.964Z,102427.81
2022-08-11T11:47:55.050Z,102427.09
2022-08-11T11:50:36.514Z,102420.06
2022-08-11T11:53:07.939Z,102414.47
2022-08-11T11:55:35.837Z,102420.19
2022-08-11T11:58:22.405Z,102416.59
2022-08-11T12:01:09.333Z,102413.13
2022-08-11T12:03:37.864Z,102417.66
2022-08-11T12:06:04.751Z,102413.81
2022-08-11T12:08:31.944Z,102414.88
2022-08-11T12:11:20.331Z,102406.38
2022-08-11T12:13:51.806Z,102411.97
2022-08-11T12:16:35.528Z,102404.88
2022-08-11T12:19:11.682Z,102400.66
2022-08-11T12:22:00.851Z,102392.00
2022-08-11T12:24:48.122Z,102386.91
2022-08-11T12:27:25.595Z,102383.47
2022-08-11T12:30:08.363Z,102381.88
2022-08-11T12:32:38.434Z,102381.38
2022-08-11T12:35:06.759Z,102377.19
2022-08-11T12:38:03.680Z,102378.59
2022-08-11T12:44:05.409Z,102371.47
2022-08-11T12:46:35.482Z,102365.00
2022-08-11T12:49:30.567Z,102367.09
2022-08-11T12:52:14.418Z,102360.97
2022-08-11T12:54:49.557Z,102358.09
2022-08-11T12:57:56.070Z,102363.66
2022-08-11T13:00:43.570Z,102355.38
2022-08-11T13:03:30.616Z,102357.66
2022-08-11T13:05:59.978Z,102350.66
2022-08-11T13:08:29.224Z,102357.84
2022-08-11T13:11:17.181Z,102345.91
2022-08-11T13:13:53.585Z,102349.03
2022-08-11T13:16:27.898Z,102338.25
2022-08-11T13:18:55.111Z,102340.34
2022-08-11T13:21:23.029Z,102348.34
2022-08-11T13:24:00.439Z,102338.38
2022-08-11T13:26:46.842Z,102328.44
2022-08-11T13:29:18.524Z,102334.53
2022-08-11T13:31:45.968Z,102330.09
2022-08-11T13:34:13.232Z,102331.22
2022-08-11T13:36:40.767Z,102327.38
2022-08-11T13:39:07.527Z,102330.31
2022-08-11T13:41:41.033Z,102328.22
2022-08-11T13:44:09.950Z,102327.28
2022-08-11T13:46:36.832Z,102323.91
2022-08-11T13:49:04.888Z,102324.50
2022-08-11T13:51:35.517Z,102333.38
2022-08-11T13:54:12.040Z,102321.47
2022-08-11T13:56:42.383Z,102324.19
2022-08-11T13:59:10.259Z,102320.94
2022-08-11T14:02:22.923Z,102321.13
2022-08-11T14:04:43.492Z,102307.31
2022-08-11T14:07:12.139Z,102299.25
2022-08-11T14:09:42.417Z,102301.25
2022-08-11T14:12:42.206Z,102311.00
2022-08-11T14:15:19.905Z,102310.47
2022-08-11T14:17:52.359Z,102307.13
2022-08-11T14:20:38.200Z,102296.81
2022-08-11T14:23:10.789Z,102293.44
2022-08-11T14:26:00.520Z,102293.91
2022-08-11T14:28:34.369Z,102294.09
2022-08-11T14:31:05.222Z,102291.00
2022-08-11T14:34:01.114Z,102290.28
2022-08-11T14:36:23.100Z,102288.41
2022-08-11T14:38:50.909Z,102290.63
2022-08-11T14:41:36.971Z,102275.97
2022-08-11T14:44:43.920Z,102274.97
2022-08-11T14:47:24.295Z,102282.81
2022-08-11T14:50:09.886Z,102262.41
2022-08-11T14:52:43.198Z,102282.06
2022-08-11T14:55:29.513Z,102280.97
2022-08-11T14:57:57.097Z,102276.03
2022-08-11T15:00:24.933Z,102287.00
2022-08-11T15:03:10.108Z,102278.31
2022-08-11T15:05:57.732Z,102273.16
2022-08-11T15:08:46.044Z,102270.06
2022-08-11T15:11:33.772Z,102262.72
2022-08-11T15:14:02.342Z,102262.47
2022-08-11T15:16:47.974Z,102256.28
2022-08-11T15:19:15.771Z,102256.13
2022-08-11T15:22:00.978Z,102247.34
2022-08-11T15:24:30.686Z,102254.34
2022-08-11T15:27:19.040Z,102246.03
2022-08-11T15:30:06.377Z,102252.31
2022-08-11T15:32:53.743Z,102247.59
2022-08-11T15:35:40.573Z,102250.03
2022-08-11T15:38:12.719Z,102237.72
2022-08-11T15:41:00.118Z,102226.66
2022-08-11T15:43:51.570Z,102237.13
2022-08-11T15:46:22.270Z,102234.44
2022-08-11T15:49:11.092Z,102224.19
2022-08-11T15:51:48.020Z,102226.50
2022-08-11T15:54:17.355Z,102231.34
2022-08-11T15:56:46.401Z,102231.00
2022-08-11T15:59:43.279Z,102227.94
2022-08-11T16:02:17.672Z,102221.78
2022-08-11T16:04:49.508Z,102213.88
2022-08-11T16:07:19.160Z,102223.66
2022-08-11T16:09:54.126Z,102211.16
2022-08-11T16:12:31.534Z,102212.72
2022-08-11T16:15:20.620Z,102209.91
2022-08-11T16:17:51.967Z,102213.78
2022-08-11T16:20:24.985Z,102205.88
2022-08-11T16:23:02.100Z,102208.38
2022-08-11T16:27:03.734Z,102202.84
2022-08-11T16:28:21.806Z,102205.31
2022-08-11T16:30:49.896Z,102201.06
2022-08-11T16:33:48.151Z,102190.09
2022-08-11T16:36:24.612Z,102196.19
2022-08-11T16:38:52.899Z,102196.13
2022-08-11T16:41:44.226Z,102191.81
2022-08-11T16:44:37.241Z,102190.41
2022-08-11T16:47:07.034Z,102186.88
2022-08-11T16:49:42.885Z,102196.59
2022-08-11T16:52:13.361Z,102180.25
2022-08-11T16:54:44.550Z,102191.69
2022-08-11T16:57:41.647Z,102195.00
2022-08-11T17:00:12.493Z,102178.66
2022-08-11T17:03:04.748Z,102177.00
2022-08-11T17:05:53.760Z,102184.75
2022-08-11T17:09:01.249Z,102182.28
2022-08-11T17:11:49.832Z,102176.44
2022-08-11T17:14:36.521Z,102174.22
2022-08-11T17:17:07.210Z,102176.69
2022-08-11T17:20:38.731Z,102174.75
2022-08-11T17:22:41.376Z,102178.63
2022-08-11T17:25:09.851Z,102181.97
2022-08-11T17:27:38.790Z,102186.31
2022-08-11T17:30:07.687Z,102183.28
2022-08-11T17:33:00.169Z,102177.47
2022-08-11T17:35:35.053Z,102172.69
2022-08-11T17:38:11.828Z,102182.53
2022-08-11T17:41:01.516Z,102172.34
2022-08-11T17:43:48.649Z,102179.94
2022-08-11T17:46:35.992Z,102178.13
2022-08-11T17:49:05.895Z,102171.22
2022-08-11T17:51:51.412Z,102171.00
2022-08-11T17:54:37.290Z,102175.44
2022-08-11T17:57:28.561Z,102178.16
2022-08-11T17:59:57.679Z,102171.59
2022-08-11T18:03:03.541Z,102175.53
2022-08-11T18:05:33.550Z,102178.81
2022-08-11T18:08:24.090Z,102188.59
2022-08-11T18:11:11.575Z,102182.59
2022-08-11T18:14:03.782Z,102175.47
2022-08-11T18:16:48.588Z,102180.44
2022-08-11T18:19:33.903Z,102182.50
2022-08-11T18:22:28.797Z,102181.78
2022-08-11T18:25:19.639Z,102187.75
2022-08-11T18:28:07.190Z,102193.78
2022-08-11T18:31:03.924Z,102190.19
2022-08-11T18:34:09.250Z,102180.44
2022-08-11T18:36:59.889Z,102183.19
2022-08-11T18:39:54.684Z,102190.19
2022-08-11T18:42:43.033Z,102189.16
2022-08-11T18:45:31.445Z,102187.59
2022-08-11T18:48:35.995Z,102197.53
2022-08-11T18:51:31.698Z,102193.66
2022-08-11T18:54:27.915Z,102200.38
2022-08-11T18:57:16.329Z,102202.19
2022-08-11T19:00:04.166Z,102201.09
2022-08-11T19:02:53.278Z,102201.31
2022-08-11T19:06:06.050Z,102202.50
2022-08-11T19:08:48.843Z,102203.72
2022-08-11T19:11:34.767Z,102199.44
2022-08-11T19:14:29.045Z,102208.75
2022-08-11T19:17:15.915Z,102219.59
2022-08-11T19:20:30.098Z,102212.31
2022-08-11T19:23:16.995Z,102216.03
2022-08-11T19:26:03.703Z,102206.91
2022-08-11T19:28:50.170Z,102219.75
2022-08-11T19:31:37.957Z,102222.41
2022-08-11T19:34:26.316Z,102222.84
2022-08-11T19:37:12.598Z,102242.22
2022-08-11T19:40:00.068Z,102236.28
2022-08-11T19:42:47.253Z,102237.78
2022-08-11T19:45:34.065Z,102235.88
2022-08-11T19:48:31.714Z,102241.00
2022-08-11T19:51:19.485Z,102248.97
2022-08-11T19:54:07.875Z,102244.47
2022-08-11T19:56:53.775Z,102255.28
2022-08-11T19:59:41.145Z,102247.91
2022-08-11T20:02:26.453Z,102248.19
2022-08-11T20:05:11.642Z,102249.63
2022-08-11T20:07:57.484Z,102248.91
2022-08-11T20:10:45.913Z,102252.63
2022-08-11T20:13:32.812Z,102254.25
2022-08-11T20:16:20.652Z,102259.41
2022-08-11T20:19:08.459Z,102260.44
2022-08-11T20:21:55.372Z,102262.19
2022-08-11T20:24:41.181Z,102257.72
2022-08-11T20:27:28.460Z,102266.59
2022-08-11T20:30:15.702Z,102267.28
2022-08-11T20:33:02.081Z,102263.13
2022-08-11T20:35:48.376Z,102262.72
2022-08-11T20:38:35.778Z,102264.81
2022-08-11T20:41:22.127Z,102267.78
2022-08-11T20:44:09.796Z,102269.47
2022-08-11T20:46:57.881Z,102269.66
2022-08-11T20:49:51.621Z,102265.03
2022-08-11T20:52:44.104Z,102278.78
2022-08-11T20:55:51.425Z,102279.19
2022-08-11T21:01:46.801Z,102264.47
2022-08-11T21:04:33.405Z,102285.28
2022-08-11T21:07:28.572Z,102285.94
2022-08-11T21:10:23.276Z,102281.72
2022-08-11T21:13:26.059Z,102294.75
2022-08-11T21:16:25.229Z,102289.06
2022-08-11T21:19:15.759Z,102293.09
2022-08-11T21:22:03.905Z,102296.22
2022-08-11T21:24:51.148Z,102286.13
2022-08-11T21:27:38.551Z,102282.09
2022-08-11T21:30:23.973Z,102285.22
2022-08-11T21:33:10.332Z,102290.03
2022-08-11T21:35:56.192Z,102289.00
2022-08-11T21:38:41.662Z,102279.50
2022-08-11T21:41:28.854Z,102286.88
2022-08-11T21:44:15.683Z,102282.88
2022-08-11T21:47:00.702Z,102277.81
2022-08-11T21:49:50.065Z,102275.22
2022-08-11T21:52:35.358Z,102276.72
2022-08-11T21:55:21.310Z,102278.97
2022-08-11T21:58:07.039Z,102282.13
2022-08-11T22:00:52.419Z,102279.78
2022-08-11T22:03:45.420Z,102285.44
2022-08-11T22:06:36.318Z,102288.09
2022-08-11T22:09:22.443Z,102278.78
2022-08-11T22:12:29.772Z,102282.63
2022-08-11T22:15:13.581Z,102281.09
2022-08-11T22:17:58.436Z,102276.81
2022-08-11T22:20:45.701Z,102270.75
2022-08-11T22:23:36.090Z,102266.78
2022-08-11T22:26:23.479Z,102277.88
2022-08-11T22:29:09.630Z,102275.50
2022-08-11T22:31:56.393Z,102273.41
2022-08-11T22:34:51.803Z,102272.75
2022-08-11T22:37:40.402Z,102275.81
2022-08-11T22:40:28.424Z,102283.13
2022-08-11T22:43:13.805Z,102271.69
2022-08-11T22:45:59.240Z,102273.81
2022-08-11T22:48:47.266Z,102277.56
2022-08-11T22:51:33.583Z,102278.84
2022-08-11T22:54:23.372Z,102271.94
2022-08-11T22:57:09.192Z,102270.84
2022-08-11T22:59:56.866Z,102262.00
2022-08-11T23:02:45.654Z,102270.41
2022-08-11T23:05:32.933Z,102273.75
2022-08-11T23:08:19.312Z,102258.72
2022-08-11T23:11:06.195Z,102270.38
2022-08-11T23:13:52.573Z,102261.84
2022-08-11T23:16:38.484Z,102267.53
2022-08-11T23:20:04.647Z,102270.66
2022-08-11T23:22:36.665Z,102266.50
2022-08-11T23:25:34.731Z,102258.41
2022-08-11T23:28:21.068Z,102252.53
2022-08-11T23:31:09.583Z,102256.28
2022-08-11T23:33:58.366Z,102255.63
2022-08-11T23:36:47.378Z,102253.63
2022-08-11T23:39:33.113Z,102254.91
2022-08-11T23:42:18.075Z,102258.22
2022-08-11T23:45:02.860Z,102241.91
2022-08-11T23:47:51.125Z,102252.78
2022-08-11T23:50:37.088Z,102252.28
2022-08-11T23:53:22.501Z,102253.94
2022-08-11T23:56:07.805Z,102259.88
2022-08-11T23:58:53.609Z,102255.69
